createdAt,value
2023-03-26T00:02:08.661Z,9.20
2023-03-26T00:04:55.384Z,8.80
2023-03-26T00:07:41.824Z,7.10
2023-03-26T00:10:28.642Z,8.00
2023-03-26T00:13:14.934Z,5.70
2023-03-26T00:16:01.887Z,6.20
2023-03-26T00:18:48.392Z,5.50
2023-03-26T00:21:34.566Z,5.90
2023-03-26T00:24:21.206Z,7.20
2023-03-26T00:27:08.305Z,6.30
2023-03-26T00:29:55.896Z,6.30
2023-03-26T00:32:43.316Z,6.10
2023-03-26T00:35:29.792Z,5.80
2023-03-26T00:38:17.227Z,5.40
2023-03-26T00:41:05.352Z,6.20
2023-03-26T00:43:55.929Z,7.10
2023-03-26T00:46:42.050Z,4.40
2023-03-26T00:49:30.177Z,4.80
2023-03-26T00:52:23.057Z,5.00
2023-03-26T00:55:09.723Z,5.80
2023-03-26T00:57:55.732Z,5.60
2023-03-26T01:04:55.035Z,4.20
2023-03-26T01:08:43.625Z,5.40
2023-03-26T01:12:04.688Z,4.70
2023-03-26T01:15:54.960Z,2.60
2023-03-26T01:23:43.624Z,3.00
2023-03-26T01:27:02.092Z,3.20
2023-03-26T01:30:35.768Z,3.60
2023-03-26T01:33:56.064Z,2.60
2023-03-26T01:37:29.687Z,3.10
2023-03-26T01:40:24.417Z,3.70
2023-03-26T01:44:11.868Z,2.90
2023-03-26T01:47:33.569Z,3.40
2023-03-26T01:51:02.311Z,4.20
2023-03-26T01:54:20.787Z,5.10
2023-03-26T01:57:47.817Z,3.50
2023-03-26T02:01:15.069Z,4.80
2023-03-26T02:05:02.688Z,5.20
2023-03-26T02:08:52.497Z,3.50
2023-03-26T02:12:14.014Z,4.60
2023-03-26T02:15:24.693Z,4.90
2023-03-26T02:18:45.635Z,5.10
2023-03-26T02:22:36.182Z,5.70
2023-03-26T02:26:01.900Z,5.00
2023-03-26T02:29:27.428Z,5.20
2023-03-26T02:33:21.636Z,4.80
2023-03-26T02:37:00.744Z,3.40
2023-03-26T02:40:28.707Z,3.20
2023-03-26T02:43:59.478Z,2.80
2023-03-26T02:48:14.680Z,4.10
2023-03-26T02:51:45.432Z,2.90
2023-03-26T02:55:04.112Z,4.00
2023-03-26T02:58:36.528Z,5.50
2023-03-26T03:02:44.308Z,6.20
2023-03-26T03:06:21.500Z,4.30
2023-03-26T03:09:57.244Z,4.30
2023-03-26T03:13:21.201Z,3.20
2023-03-26T03:16:38.195Z,3.20
2023-03-26T03:22:50.649Z,4.10
2023-03-26T03:26:27.392Z,3.80
2023-03-26T03:29:36.081Z,4.10
2023-03-26T03:33:13.888Z,2.60
2023-03-26T03:36:31.054Z,3.20
2023-03-26T03:40:36.994Z,3.50
2023-03-26T03:43:43.350Z,3.80
2023-03-26T03:47:27.752Z,2.50
2023-03-26T03:50:41.224Z,3.00
2023-03-26T03:54:56.844Z,2.90
2023-03-26T03:58:45.822Z,2.70
2023-03-26T04:02:21.329Z,3.10
2023-03-26T04:05:15.437Z,3.60
2023-03-26T04:08:27.920Z,3.10
2023-03-26T04:11:39.931Z,3.70
2023-03-26T04:15:40.817Z,3.70
2023-03-26T04:19:08.618Z,3.90
2023-03-26T04:22:03.300Z,5.30
2023-03-26T04:25:34.146Z,5.30
2023-03-26T04:28:56.923Z,6.20
2023-03-26T04:32:38.544Z,3.80
2023-03-26T04:36:01.513Z,4.30
2023-03-26T04:39:41.614Z,5.60
2023-03-26T04:43:22.957Z,8.50
2023-03-26T04:46:57.026Z,7.20
2023-03-26T04:50:36.214Z,5.00
2023-03-26T04:58:17.320Z,4.30
2023-03-26T05:02:00.569Z,5.10
2023-03-26T05:13:33.798Z,3.60
2023-03-26T05:17:50.091Z,4.50
2023-03-26T05:22:09.577Z,6.50
2023-03-26T05:26:18.434Z,5.40
2023-03-26T05:30:46.809Z,3.50
2023-03-26T05:39:15.714Z,5.10
2023-03-26T05:43:21.863Z,8.10
2023-03-26T05:47:34.586Z,5.30
2023-03-26T05:51:20.644Z,3.80
2023-03-26T05:55:17.619Z,5.00
2023-03-26T05:59:20.140Z,15.00
2023-03-26T06:03:25.565Z,5.00
2023-03-26T06:07:27.444Z,6.30
2023-03-26T06:11:18.651Z,5.20
2023-03-26T06:15:13.438Z,5.40
2023-03-26T06:18:56.641Z,4.50
2023-03-26T06:23:02.376Z,4.40
2023-03-26T06:31:07.342Z,4.20
2023-03-26T06:34:39.062Z,3.20
2023-03-26T06:38:15.680Z,2.40
2023-03-26T06:41:51.806Z,3.40
2023-03-26T06:46:04.429Z,4.00
2023-03-26T06:49:14.178Z,2.80
2023-03-26T06:53:10.561Z,2.70
2023-03-26T06:56:21.008Z,6.10
2023-03-26T06:59:56.151Z,9.00
2023-03-26T07:03:31.853Z,6.70
2023-03-26T07:07:02.583Z,6.20
2023-03-26T07:10:56.411Z,16.30
2023-03-26T07:14:12.839Z,36.50
2023-03-26T07:17:20.880Z,23.40
2023-03-26T07:24:49.543Z,19.60
2023-03-26T07:28:34.486Z,11.90
2023-03-26T07:32:34.604Z,11.10
2023-03-26T07:36:45.365Z,11.00
2023-03-26T07:40:55.607Z,6.30
2023-03-26T07:44:42.368Z,8.10
2023-03-26T07:48:51.826Z,5.40
2023-03-26T07:51:58.502Z,6.20
2023-03-26T07:55:22.979Z,5.90
2023-03-26T07:59:02.048Z,6.10
2023-03-26T08:02:34.335Z,5.10
2023-03-26T08:05:32.253Z,4.70
2023-03-26T08:09:02.119Z,6.00
2023-03-26T08:12:14.232Z,6.00
2023-03-26T08:15:27.789Z,4.10
2023-03-26T08:18:20.384Z,4.10
2023-03-26T08:21:15.171Z,5.90
2023-03-26T08:24:03.021Z,5.80
2023-03-26T08:26:58.536Z,6.00
2023-03-26T08:30:10.349Z,8.50
2023-03-26T08:33:19.058Z,7.80
2023-03-26T08:36:11.889Z,5.60
2023-03-26T08:39:04.125Z,9.20
2023-03-26T08:42:42.631Z,5.60
2023-03-26T08:45:50.831Z,4.10
2023-03-26T08:49:17.388Z,3.30
2023-03-26T08:52:30.168Z,4.80
2023-03-26T08:55:20.919Z,12.70
2023-03-26T08:58:30.282Z,5.40
2023-03-26T09:01:16.796Z,2.10
2023-03-26T09:04:15.112Z,3.60
2023-03-26T09:07:20.920Z,2.10
2023-03-26T09:10:29.736Z,3.30
2023-03-26T09:13:36.116Z,4.10
2023-03-26T09:17:02.773Z,3.10
2023-03-26T09:19:56.504Z,3.40
2023-03-26T09:23:01.884Z,2.10
2023-03-26T09:25:54.481Z,3.70
2023-03-26T09:28:47.290Z,3.10
2023-03-26T09:31:43.890Z,9.20
2023-03-26T09:34:42.486Z,20.20
2023-03-26T09:37:57.101Z,17.30
2023-03-26T09:41:06.736Z,6.50
2023-03-26T09:44:03.736Z,2.50
2023-03-26T09:47:01.103Z,3.10
2023-03-26T09:50:02.857Z,2.50
2023-03-26T09:52:57.473Z,1.40
2023-03-26T09:56:08.886Z,2.90
2023-03-26T09:59:23.141Z,2.80
2023-03-26T10:02:45.904Z,9.20
2023-03-26T10:06:15.284Z,3.00
2023-03-26T10:09:38.355Z,14.10
2023-03-26T10:12:33.531Z,4.80
2023-03-26T10:15:25.306Z,11.40
2023-03-26T10:18:27.235Z,7.30
2023-03-26T10:21:44.420Z,4.50
2023-03-26T10:27:25.410Z,3.20
2023-03-26T10:30:23.857Z,4.60
2023-03-26T10:33:17.637Z,6.30
2023-03-26T10:36:13.415Z,7.00
2023-03-26T10:41:58.809Z,9.70
2023-03-26T10:44:58.060Z,7.90
2023-03-26T10:47:48.707Z,5.50
2023-03-26T10:50:46.949Z,6.90
2023-03-26T10:53:49.833Z,7.70
2023-03-26T10:56:56.795Z,5.60
2023-03-26T10:59:43.665Z,7.30
2023-03-26T11:02:32.605Z,6.60
2023-03-26T11:05:27.451Z,5.50
2023-03-26T11:08:48.992Z,3.70
2023-03-26T11:12:31.586Z,4.00
2023-03-26T11:15:42.404Z,3.80
2023-03-26T11:18:36.214Z,3.20
2023-03-26T11:21:25.854Z,5.10
2023-03-26T11:24:35.702Z,3.50
2023-03-26T11:27:26.219Z,3.90
2023-03-26T11:30:18.065Z,4.50
2023-03-26T11:33:06.051Z,3.60
2023-03-26T11:35:55.179Z,4.90
2023-03-26T11:38:44.017Z,3.90
2023-03-26T11:41:42.672Z,2.70
2023-03-26T11:45:09.432Z,3.10
2023-03-26T11:48:06.088Z,3.20
2023-03-26T11:51:14.881Z,2.10
2023-03-26T11:54:02.914Z,2.10
2023-03-26T11:57:08.663Z,2.20
2023-03-26T12:00:17.186Z,1.90
2023-03-26T12:03:03.585Z,2.30
2023-03-26T12:05:58.508Z,2.60
2023-03-26T12:08:53.342Z,3.10
2023-03-26T12:11:44.486Z,3.20
2023-03-26T12:14:32.416Z,2.40
2023-03-26T12:17:31.411Z,3.00
2023-03-26T12:20:38.245Z,4.70
2023-03-26T12:23:38.933Z,3.10
2023-03-26T12:26:35.984Z,2.50
2023-03-26T12:29:34.935Z,2.30
2023-03-26T12:32:45.794Z,2.20
2023-03-26T12:35:36.882Z,2.50
2023-03-26T12:38:32.411Z,2.70
2023-03-26T12:44:42.259Z,2.80
2023-03-26T12:44:46.701Z,3.80
2023-03-26T12:47:57.449Z,3.70
2023-03-26T12:50:59.248Z,3.30
2023-03-26T12:54:09.876Z,2.50
2023-03-26T12:57:11.283Z,2.70
2023-03-26T13:00:10.518Z,2.40
2023-03-26T13:03:00.549Z,2.40
2023-03-26T13:05:57.805Z,2.20
2023-03-26T13:09:07.369Z,2.30
2023-03-26T13:12:02.743Z,2.50
2023-03-26T13:15:13.117Z,1.90
2023-03-26T13:18:20.908Z,2.70
2023-03-26T13:21:16.379Z,2.50
2023-03-26T13:24:21.107Z,2.60
2023-03-26T13:27:29.035Z,1.40
2023-03-26T13:30:32.383Z,1.60
2023-03-26T13:33:31.272Z,1.80
2023-03-26T13:36:31.543Z,1.40
2023-03-26T13:39:23.366Z,1.80
2023-03-26T13:42:22.539Z,2.10
2023-03-26T13:45:27.054Z,5.70
2023-03-26T13:48:18.428Z,4.40
2023-03-26T13:51:11.097Z,5.90
2023-03-26T13:54:06.552Z,3.90
2023-03-26T13:57:23.750Z,6.40
2023-03-26T14:01:04.037Z,7.10
2023-03-26T14:04:48.831Z,11.00
2023-03-26T14:08:03.868Z,3.70
2023-03-26T14:11:02.844Z,4.80
2023-03-26T14:14:39.223Z,8.50
2023-03-26T14:18:05.004Z,8.80
2023-03-26T14:21:53.686Z,4.60
2023-03-26T14:24:58.355Z,9.60
2023-03-26T14:28:06.860Z,5.70
2023-03-26T14:31:30.233Z,6.60
2023-03-26T14:34:45.088Z,4.50
2023-03-26T14:37:53.377Z,5.80
2023-03-26T14:40:53.958Z,4.50
2023-03-26T14:44:05.445Z,5.10
2023-03-26T14:47:14.333Z,4.60
2023-03-26T14:50:23.066Z,6.40
2023-03-26T14:53:20.071Z,8.40
2023-03-26T14:56:22.256Z,8.30
2023-03-26T14:59:20.212Z,7.50
2023-03-26T15:02:24.360Z,9.00
2023-03-26T15:05:23.618Z,6.50
2023-03-26T15:08:33.895Z,9.70
2023-03-26T15:11:29.613Z,5.90
2023-03-26T15:15:06.327Z,3.10
2023-03-26T15:19:12.918Z,3.10
2023-03-26T15:22:13.175Z,3.30
2023-03-26T15:25:31.749Z,3.50
2023-03-26T15:29:20.759Z,4.00
2023-03-26T15:36:57.083Z,4.00
2023-03-26T16:30:17.050Z,5.30
2023-03-26T16:51:58.147Z,7.60
2023-03-26T17:45:50.168Z,14.00
2023-03-26T17:51:08.798Z,33.50
2023-03-26T17:59:43.921Z,78.50
2023-03-26T18:03:31.484Z,55.30
2023-03-26T18:07:03.042Z,56.10
2023-03-26T18:10:33.690Z,60.30
2023-03-26T18:21:47.668Z,61.60
2023-03-26T18:25:33.218Z,54.40
2023-03-26T18:32:05.718Z,19.90
2023-03-26T18:35:06.502Z,22.90
2023-03-26T18:39:45.598Z,15.50
2023-03-26T18:43:01.284Z,16.70
2023-03-26T18:45:54.537Z,28.40
2023-03-26T18:48:44.404Z,23.10
2023-03-26T18:51:43.237Z,22.60
2023-03-26T18:54:38.384Z,30.00
2023-03-26T18:57:30.003Z,30.30
2023-03-26T19:00:30.116Z,28.20
2023-03-26T19:03:43.785Z,28.90
2023-03-26T19:07:03.374Z,21.70
2023-03-26T19:13:00.545Z,19.40
2023-03-26T19:16:07.239Z,24.40
2023-03-26T19:19:18.411Z,29.70
2023-03-26T19:22:21.234Z,33.60
2023-03-26T19:25:33.808Z,38.30
2023-03-26T19:28:28.540Z,29.20
2023-03-26T19:31:57.424Z,35.30
2023-03-26T19:35:11.206Z,43.70
2023-03-26T19:38:25.251Z,38.40
2023-03-26T19:41:25.584Z,33.70
2023-03-26T19:44:21.370Z,33.80
2023-03-26T19:47:32.117Z,34.10
2023-03-26T19:50:32.638Z,42.60
2023-03-26T19:53:30.419Z,48.00
2023-03-26T19:56:33.087Z,47.10
2023-03-26T19:59:39.861Z,46.30
2023-03-26T20:02:33.190Z,41.50
2023-03-26T20:06:08.861Z,48.40
2023-03-26T20:09:01.601Z,66.20
2023-03-26T20:12:09.079Z,62.10
2023-03-26T20:15:06.470Z,78.70
2023-03-26T20:18:22.749Z,70.20
2023-03-26T20:21:31.586Z,67.80
2023-03-26T20:24:31.669Z,62.50
2023-03-26T20:28:05.517Z,37.90
2023-03-26T20:35:35.952Z,55.70
2023-03-26T20:42:17.130Z,43.30
2023-03-26T20:46:00.500Z,30.30
2023-03-26T20:49:30.379Z,21.10
2023-03-26T20:53:21.310Z,24.90
2023-03-26T20:57:08.294Z,26.80
2023-03-26T21:00:37.470Z,22.90
2023-03-26T21:04:17.204Z,16.40
2023-03-26T21:07:17.572Z,19.10
2023-03-26T21:10:42.200Z,15.70
2023-03-26T21:14:39.790Z,9.30
2023-03-26T21:17:57.264Z,12.10
2023-03-26T21:21:17.915Z,13.60
2023-03-26T21:24:15.038Z,10.50
2023-03-26T21:28:09.443Z,7.10
2023-03-26T21:31:35.069Z,7.50
2023-03-26T21:34:24.867Z,5.20
2023-03-26T21:37:15.883Z,6.00
2023-03-26T21:40:30.881Z,5.40
2023-03-26T21:43:47.447Z,6.00
2023-03-26T21:46:41.812Z,5.30
2023-03-26T21:49:38.420Z,6.00
2023-03-26T21:52:29.713Z,7.40
2023-03-26T21:56:10.641Z,6.10
2023-03-26T21:59:43.860Z,5.70
2023-03-26T22:02:53.574Z,6.00
2023-03-26T22:10:21.106Z,5.40
2023-03-26T22:13:25.219Z,5.10
2023-03-26T22:19:52.005Z,6.10
2023-03-26T22:23:06.437Z,5.30
2023-03-26T22:27:25.915Z,5.10
2023-03-26T22:34:56.587Z,8.30
2023-03-26T22:38:15.757Z,8.40
2023-03-26T22:41:33.270Z,9.40
2023-03-26T22:48:13.484Z,6.60
2023-03-26T22:55:29.252Z,4.70
2023-03-26T23:02:56.086Z,11.80
2023-03-26T23:06:32.387Z,10.90
2023-03-26T23:14:09.574Z,10.20
2023-03-26T23:17:13.901Z,7.90
2023-03-26T23:20:01.751Z,7.80
2023-03-26T23:22:58.737Z,10.00
2023-03-26T23:26:26.755Z,7.70
2023-03-26T23:30:31.616Z,7.90
2023-03-26T23:35:53.461Z,9.10
2023-03-26T23:42:11.641Z,9.60
2023-03-26T23:53:16.908Z,16.00
2023-03-26T23:57:20.798Z,19.40
